sensor_id;sensor_type;location;lat;lon;timestamp;P1;durP1;ratioP1;P2;durP2;ratioP2
4049;SDS011;2039;50.894;6.888;2023-07-30T00:02:16;93.27;;;66.70;;
4049;SDS011;2039;50.894;6.888;2023-07-30T00:04:42;96.57;;;63.93;;
4049;SDS011;2039;50.894;6.888;2023-07-30T00:07:08;90.40;;;60.57;;
4049;SDS011;2039;50.894;6.888;2023-07-30T00:09:34;90.23;;;58.03;;
4049;SDS011;2039;50.894;6.888;2023-07-30T00:11:59;89.70;;;53.13;;
4049;SDS011;2039;50.894;6.888;2023-07-30T00:14:27;93.00;;;63.87;;
4049;SDS011;2039;50.894;6.888;2023-07-30T00:16:52;91.07;;;61.70;;
4049;SDS011;2039;50.894;6.888;2023-07-30T00:19:18;91.23;;;58.23;;
4049;SDS011;2039;50.894;6.888;2023-07-30T00:21:44;89.50;;;56.83;;
4049;SDS011;2039;50.894;6.888;2023-07-30T00:24:12;88.63;;;54.10;;
4049;SDS011;2039;50.894;6.888;2023-07-30T00:26:38;90.80;;;59.93;;
4049;SDS011;2039;50.894;6.888;2023-07-30T00:29:04;91.67;;;55.33;;
4049;SDS011;2039;50.894;6.888;2023-07-30T00:31:29;95.30;;;59.93;;
4049;SDS011;2039;50.894;6.888;2023-07-30T00:33:55;89.93;;;56.33;;
4049;SDS011;2039;50.894;6.888;2023-07-30T00:36:21;89.43;;;55.30;;
4049;SDS011;2039;50.894;6.888;2023-07-30T00:38:47;90.10;;;58.33;;
4049;SDS011;2039;50.894;6.888;2023-07-30T00:41:12;89.67;;;58.53;;
4049;SDS011;2039;50.894;6.888;2023-07-30T00:43:38;88.20;;;55.53;;
4049;SDS011;2039;50.894;6.888;2023-07-30T00:46:04;90.10;;;54.93;;
4049;SDS011;2039;50.894;6.888;2023-07-30T00:48:30;88.23;;;53.80;;
4049;SDS011;2039;50.894;6.888;2023-07-30T00:50:56;90.83;;;53.93;;
4049;SDS011;2039;50.894;6.888;2023-07-30T00:53:23;91.70;;;56.27;;
4049;SDS011;2039;50.894;6.888;2023-07-30T00:55:50;89.70;;;56.67;;
4049;SDS011;2039;50.894;6.888;2023-07-30T00:58:15;88.07;;;53.20;;
4049;SDS011;2039;50.894;6.888;2023-07-30T01:00:43;89.13;;;56.87;;
4049;SDS011;2039;50.894;6.888;2023-07-30T01:03:10;91.07;;;57.03;;
4049;SDS011;2039;50.894;6.888;2023-07-30T01:05:35;89.33;;;55.90;;
4049;SDS011;2039;50.894;6.888;2023-07-30T01:08:01;89.47;;;58.17;;
4049;SDS011;2039;50.894;6.888;2023-07-30T01:10:27;89.77;;;59.57;;
4049;SDS011;2039;50.894;6.888;2023-07-30T01:12:55;89.50;;;56.33;;
4049;SDS011;2039;50.894;6.888;2023-07-30T01:15:21;87.33;;;52.87;;
4049;SDS011;2039;50.894;6.888;2023-07-30T01:17:47;91.83;;;58.27;;
4049;SDS011;2039;50.894;6.888;2023-07-30T01:20:12;88.53;;;51.67;;
4049;SDS011;2039;50.894;6.888;2023-07-30T01:22:38;93.13;;;61.77;;
4049;SDS011;2039;50.894;6.888;2023-07-30T01:25:04;88.97;;;53.40;;
4049;SDS011;2039;50.894;6.888;2023-07-30T01:27:31;90.70;;;56.87;;
4049;SDS011;2039;50.894;6.888;2023-07-30T01:30:14;89.43;;;54.07;;
4049;SDS011;2039;50.894;6.888;2023-07-30T01:32:50;91.90;;;59.87;;
4049;SDS011;2039;50.894;6.888;2023-07-30T01:35:18;99.87;;;56.77;;
4049;SDS011;2039;50.894;6.888;2023-07-30T01:37:47;91.90;;;61.73;;
4049;SDS011;2039;50.894;6.888;2023-07-30T01:40:14;100.73;;;52.67;;
4049;SDS011;2039;50.894;6.888;2023-07-30T01:42:40;95.27;;;58.20;;
4049;SDS011;2039;50.894;6.888;2023-07-30T01:45:06;96.17;;;53.33;;
4049;SDS011;2039;50.894;6.888;2023-07-30T01:47:32;95.37;;;54.63;;
4049;SDS011;2039;50.894;6.888;2023-07-30T01:49:57;93.83;;;48.67;;
4049;SDS011;2039;50.894;6.888;2023-07-30T01:52:23;123.40;;;58.20;;
4049;SDS011;2039;50.894;6.888;2023-07-30T01:54:49;93.47;;;51.47;;
4049;SDS011;2039;50.894;6.888;2023-07-30T01:57:14;88.77;;;48.73;;
4049;SDS011;2039;50.894;6.888;2023-07-30T01:59:40;85.67;;;47.40;;
4049;SDS011;2039;50.894;6.888;2023-07-30T02:02:06;92.27;;;51.17;;
4049;SDS011;2039;50.894;6.888;2023-07-30T02:04:32;84.97;;;44.40;;
4049;SDS011;2039;50.894;6.888;2023-07-30T02:06:58;91.23;;;52.03;;
4049;SDS011;2039;50.894;6.888;2023-07-30T02:09:24;89.40;;;51.27;;
4049;SDS011;2039;50.894;6.888;2023-07-30T02:11:50;91.30;;;51.67;;
4049;SDS011;2039;50.894;6.888;2023-07-30T02:14:17;89.67;;;49.77;;
4049;SDS011;2039;50.894;6.888;2023-07-30T02:19:16;88.07;;;52.93;;
4049;SDS011;2039;50.894;6.888;2023-07-30T02:21:43;94.97;;;63.83;;
4049;SDS011;2039;50.894;6.888;2023-07-30T02:24:09;90.97;;;53.87;;
4049;SDS011;2039;50.894;6.888;2023-07-30T02:26:37;89.80;;;52.83;;
4049;SDS011;2039;50.894;6.888;2023-07-30T02:29:03;93.37;;;53.93;;
4049;SDS011;2039;50.894;6.888;2023-07-30T02:31:29;85.40;;;42.67;;
4049;SDS011;2039;50.894;6.888;2023-07-30T02:33:55;88.23;;;44.00;;
4049;SDS011;2039;50.894;6.888;2023-07-30T02:36:21;89.10;;;45.57;;
4049;SDS011;2039;50.894;6.888;2023-07-30T02:38:46;87.77;;;42.47;;
4049;SDS011;2039;50.894;6.888;2023-07-30T02:41:12;85.23;;;39.47;;
4049;SDS011;2039;50.894;6.888;2023-07-30T02:43:38;86.70;;;27.47;;
4049;SDS011;2039;50.894;6.888;2023-07-30T02:46:04;80.57;;;26.27;;
4049;SDS011;2039;50.894;6.888;2023-07-30T02:48:29;83.67;;;31.90;;
4049;SDS011;2039;50.894;6.888;2023-07-30T02:50:55;84.10;;;36.07;;
4049;SDS011;2039;50.894;6.888;2023-07-30T02:53:21;87.23;;;38.17;;
4049;SDS011;2039;50.894;6.888;2023-07-30T02:55:46;83.60;;;33.73;;
4049;SDS011;2039;50.894;6.888;2023-07-30T02:58:12;84.27;;;37.23;;
4049;SDS011;2039;50.894;6.888;2023-07-30T03:00:37;78.73;;;26.57;;
4049;SDS011;2039;50.894;6.888;2023-07-30T03:03:04;77.53;;;21.77;;
4049;SDS011;2039;50.894;6.888;2023-07-30T03:05:30;80.67;;;25.90;;
4049;SDS011;2039;50.894;6.888;2023-07-30T03:07:55;77.37;;;22.77;;
4049;SDS011;2039;50.894;6.888;2023-07-30T03:10:21;83.07;;;25.70;;
4049;SDS011;2039;50.894;6.888;2023-07-30T03:12:47;77.00;;;21.37;;
4049;SDS011;2039;50.894;6.888;2023-07-30T03:15:12;79.17;;;26.07;;
4049;SDS011;2039;50.894;6.888;2023-07-30T03:17:38;80.83;;;24.10;;
4049;SDS011;2039;50.894;6.888;2023-07-30T03:20:04;80.73;;;21.67;;
4049;SDS011;2039;50.894;6.888;2023-07-30T03:22:30;76.90;;;18.30;;
4049;SDS011;2039;50.894;6.888;2023-07-30T03:24:56;78.60;;;23.03;;
4049;SDS011;2039;50.894;6.888;2023-07-30T03:27:21;81.87;;;27.43;;
4049;SDS011;2039;50.894;6.888;2023-07-30T03:29:47;80.33;;;29.53;;
4049;SDS011;2039;50.894;6.888;2023-07-30T03:32:13;85.13;;;40.37;;
4049;SDS011;2039;50.894;6.888;2023-07-30T03:34:38;86.03;;;43.77;;
4049;SDS011;2039;50.894;6.888;2023-07-30T03:37:04;89.37;;;49.23;;
4049;SDS011;2039;50.894;6.888;2023-07-30T03:39:30;91.33;;;52.13;;
4049;SDS011;2039;50.894;6.888;2023-07-30T03:41:55;93.77;;;58.43;;
4049;SDS011;2039;50.894;6.888;2023-07-30T03:44:21;90.17;;;57.03;;
4049;SDS011;2039;50.894;6.888;2023-07-30T03:46:47;90.47;;;56.87;;
4049;SDS011;2039;50.894;6.888;2023-07-30T03:49:12;92.63;;;56.07;;
4049;SDS011;2039;50.894;6.888;2023-07-30T03:51:38;93.33;;;56.03;;
4049;SDS011;2039;50.894;6.888;2023-07-30T03:54:04;87.80;;;48.33;;
4049;SDS011;2039;50.894;6.888;2023-07-30T03:56:30;93.80;;;53.77;;
4049;SDS011;2039;50.894;6.888;2023-07-30T03:58:55;89.90;;;51.57;;
4049;SDS011;2039;50.894;6.888;2023-07-30T04:01:21;88.97;;;52.17;;
4049;SDS011;2039;50.894;6.888;2023-07-30T04:03:47;95.00;;;49.70;;
4049;SDS011;2039;50.894;6.888;2023-07-30T04:06:13;90.07;;;50.53;;
4049;SDS011;2039;50.894;6.888;2023-07-30T04:08:41;90.10;;;57.40;;
4049;SDS011;2039;50.894;6.888;2023-07-30T04:11:07;88.97;;;51.30;;
4049;SDS011;2039;50.894;6.888;2023-07-30T04:13:33;93.30;;;53.90;;
4049;SDS011;2039;50.894;6.888;2023-07-30T04:15:58;94.03;;;59.10;;
4049;SDS011;2039;50.894;6.888;2023-07-30T04:18:24;89.30;;;52.53;;
4049;SDS011;2039;50.894;6.888;2023-07-30T04:20:50;87.10;;;47.30;;
4049;SDS011;2039;50.894;6.888;2023-07-30T04:23:15;89.20;;;45.33;;
4049;SDS011;2039;50.894;6.888;2023-07-30T04:25:42;91.30;;;41.03;;
4049;SDS011;2039;50.894;6.888;2023-07-30T04:28:08;83.03;;;30.73;;
4049;SDS011;2039;50.894;6.888;2023-07-30T04:30:34;80.07;;;28.87;;
4049;SDS011;2039;50.894;6.888;2023-07-30T04:33:00;81.03;;;31.97;;
4049;SDS011;2039;50.894;6.888;2023-07-30T04:35:25;83.67;;;34.53;;
4049;SDS011;2039;50.894;6.888;2023-07-30T04:37:51;78.67;;;26.33;;
4049;SDS011;2039;50.894;6.888;2023-07-30T04:40:17;77.23;;;24.50;;
4049;SDS011;2039;50.894;6.888;2023-07-30T04:42:43;79.50;;;20.97;;
4049;SDS011;2039;50.894;6.888;2023-07-30T04:45:09;76.33;;;17.47;;
4049;SDS011;2039;50.894;6.888;2023-07-30T04:47:34;76.90;;;23.50;;
4049;SDS011;2039;50.894;6.888;2023-07-30T04:50:00;79.87;;;26.30;;
4049;SDS011;2039;50.894;6.888;2023-07-30T04:52:26;80.53;;;24.93;;
4049;SDS011;2039;50.894;6.888;2023-07-30T04:54:51;79.93;;;25.90;;
4049;SDS011;2039;50.894;6.888;2023-07-30T04:57:17;82.30;;;26.33;;
4049;SDS011;2039;50.894;6.888;2023-07-30T04:59:46;85.50;;;38.23;;
4049;SDS011;2039;50.894;6.888;2023-07-30T05:02:11;87.90;;;44.93;;
4049;SDS011;2039;50.894;6.888;2023-07-30T05:04:37;84.97;;;45.33;;
4049;SDS011;2039;50.894;6.888;2023-07-30T05:07:03;89.33;;;47.53;;
4049;SDS011;2039;50.894;6.888;2023-07-30T05:09:29;87.67;;;37.00;;
4049;SDS011;2039;50.894;6.888;2023-07-30T05:11:55;85.17;;;37.57;;
4049;SDS011;2039;50.894;6.888;2023-07-30T05:14:20;82.30;;;36.33;;
4049;SDS011;2039;50.894;6.888;2023-07-30T05:16:46;84.97;;;40.23;;
4049;SDS011;2039;50.894;6.888;2023-07-30T05:19:11;90.40;;;52.13;;
4049;SDS011;2039;50.894;6.888;2023-07-30T05:21:37;90.77;;;44.63;;
4049;SDS011;2039;50.894;6.888;2023-07-30T05:24:03;86.20;;;47.20;;
4049;SDS011;2039;50.894;6.888;2023-07-30T05:26:29;88.83;;;45.97;;
4049;SDS011;2039;50.894;6.888;2023-07-30T05:28:55;87.40;;;44.97;;
4049;SDS011;2039;50.894;6.888;2023-07-30T05:31:20;89.40;;;47.87;;
4049;SDS011;2039;50.894;6.888;2023-07-30T05:33:46;84.90;;;36.43;;
4049;SDS011;2039;50.894;6.888;2023-07-30T05:36:12;81.73;;;30.77;;
4049;SDS011;2039;50.894;6.888;2023-07-30T05:38:37;79.80;;;24.73;;
4049;SDS011;2039;50.894;6.888;2023-07-30T05:41:03;79.60;;;16.90;;
4049;SDS011;2039;50.894;6.888;2023-07-30T05:43:28;78.87;;;14.67;;
4049;SDS011;2039;50.894;6.888;2023-07-30T05:45:54;78.83;;;22.70;;
4049;SDS011;2039;50.894;6.888;2023-07-30T05:48:20;83.43;;;32.70;;
4049;SDS011;2039;50.894;6.888;2023-07-30T05:50:45;83.97;;;38.80;;
4049;SDS011;2039;50.894;6.888;2023-07-30T05:53:11;86.50;;;36.67;;
4049;SDS011;2039;50.894;6.888;2023-07-30T05:55:37;84.63;;;38.73;;
4049;SDS011;2039;50.894;6.888;2023-07-30T05:58:02;89.27;;;46.37;;
4049;SDS011;2039;50.894;6.888;2023-07-30T06:00:28;86.33;;;43.13;;
4049;SDS011;2039;50.894;6.888;2023-07-30T06:02:54;83.67;;;36.80;;
4049;SDS011;2039;50.894;6.888;2023-07-30T06:05:19;84.87;;;36.67;;
4049;SDS011;2039;50.894;6.888;2023-07-30T06:07:45;88.50;;;40.33;;
4049;SDS011;2039;50.894;6.888;2023-07-30T06:10:11;84.70;;;37.40;;
4049;SDS011;2039;50.894;6.888;2023-07-30T06:12:36;81.27;;;32.67;;
4049;SDS011;2039;50.894;6.888;2023-07-30T06:15:02;88.50;;;42.23;;
4049;SDS011;2039;50.894;6.888;2023-07-30T06:17:28;84.00;;;43.37;;
4049;SDS011;2039;50.894;6.888;2023-07-30T06:19:54;87.00;;;45.40;;
4049;SDS011;2039;50.894;6.888;2023-07-30T06:22:19;95.93;;;47.80;;
4049;SDS011;2039;50.894;6.888;2023-07-30T06:24:45;89.03;;;47.07;;
4049;SDS011;2039;50.894;6.888;2023-07-30T06:27:11;85.90;;;44.73;;
4049;SDS011;2039;50.894;6.888;2023-07-30T06:29:37;79.47;;;31.43;;
4049;SDS011;2039;50.894;6.888;2023-07-30T06:32:06;87.20;;;46.97;;
4049;SDS011;2039;50.894;6.888;2023-07-30T06:34:32;88.27;;;50.53;;
4049;SDS011;2039;50.894;6.888;2023-07-30T06:36:57;84.13;;;42.70;;
4049;SDS011;2039;50.894;6.888;2023-07-30T06:39:23;80.43;;;32.47;;
4049;SDS011;2039;50.894;6.888;2023-07-30T06:41:49;79.93;;;29.23;;
4049;SDS011;2039;50.894;6.888;2023-07-30T06:44:14;83.53;;;33.80;;
4049;SDS011;2039;50.894;6.888;2023-07-30T06:46:41;86.83;;;41.17;;
4049;SDS011;2039;50.894;6.888;2023-07-30T06:49:06;78.20;;;23.77;;
4049;SDS011;2039;50.894;6.888;2023-07-30T06:51:32;76.37;;;22.13;;
4049;SDS011;2039;50.894;6.888;2023-07-30T06:53:57;74.37;;;16.03;;
4049;SDS011;2039;50.894;6.888;2023-07-30T06:56:23;79.57;;;17.37;;
4049;SDS011;2039;50.894;6.888;2023-07-30T06:58:50;76.47;;;17.03;;
4049;SDS011;2039;50.894;6.888;2023-07-30T07:01:16;75.73;;;18.03;;
4049;SDS011;2039;50.894;6.888;2023-07-30T07:03:41;91.17;;;43.73;;
4049;SDS011;2039;50.894;6.888;2023-07-30T07:06:07;86.40;;;42.23;;
4049;SDS011;2039;50.894;6.888;2023-07-30T07:08:33;83.30;;;38.07;;
4049;SDS011;2039;50.894;6.888;2023-07-30T07:10:58;89.57;;;46.07;;
4049;SDS011;2039;50.894;6.888;2023-07-30T07:13:24;77.60;;;24.03;;
4049;SDS011;2039;50.894;6.888;2023-07-30T07:15:49;78.27;;;25.50;;
4049;SDS011;2039;50.894;6.888;2023-07-30T07:18:15;79.90;;;19.70;;
4049;SDS011;2039;50.894;6.888;2023-07-30T07:20:41;74.70;;;13.87;;
4049;SDS011;2039;50.894;6.888;2023-07-30T07:23:07;86.00;;;12.50;;
4049;SDS011;2039;50.894;6.888;2023-07-30T07:25:33;73.23;;;10.27;;
4049;SDS011;2039;50.894;6.888;2023-07-30T07:28:00;74.60;;;14.60;;
4049;SDS011;2039;50.894;6.888;2023-07-30T07:30:26;79.83;;;15.67;;
4049;SDS011;2039;50.894;6.888;2023-07-30T07:32:52;74.47;;;15.90;;
4049;SDS011;2039;50.894;6.888;2023-07-30T07:35:27;76.93;;;18.93;;
4049;SDS011;2039;50.894;6.888;2023-07-30T07:37:52;77.20;;;19.30;;
4049;SDS011;2039;50.894;6.888;2023-07-30T07:40:22;77.33;;;19.40;;
4049;SDS011;2039;50.894;6.888;2023-07-30T07:42:47;82.97;;;22.57;;
4049;SDS011;2039;50.894;6.888;2023-07-30T07:45:13;76.73;;;18.70;;
4049;SDS011;2039;50.894;6.888;2023-07-30T07:47:39;78.47;;;20.70;;
4049;SDS011;2039;50.894;6.888;2023-07-30T07:50:05;80.67;;;20.37;;
4049;SDS011;2039;50.894;6.888;2023-07-30T07:52:31;77.60;;;19.60;;
4049;SDS011;2039;50.894;6.888;2023-07-30T07:54:57;78.93;;;18.83;;
4049;SDS011;2039;50.894;6.888;2023-07-30T07:57:32;76.43;;;15.50;;
4049;SDS011;2039;50.894;6.888;2023-07-30T07:59:57;82.00;;;15.47;;
4049;SDS011;2039;50.894;6.888;2023-07-30T08:02:26;78.83;;;16.83;;
4049;SDS011;2039;50.894;6.888;2023-07-30T08:04:55;84.33;;;19.80;;
4049;SDS011;2039;50.894;6.888;2023-07-30T08:07:21;80.27;;;18.00;;
4049;SDS011;2039;50.894;6.888;2023-07-30T08:09:46;77.30;;;17.70;;
4049;SDS011;2039;50.894;6.888;2023-07-30T08:12:12;78.03;;;18.87;;
4049;SDS011;2039;50.894;6.888;2023-07-30T08:14:39;78.93;;;19.07;;
4049;SDS011;2039;50.894;6.888;2023-07-30T08:22:35;77.77;;;19.73;;
4049;SDS011;2039;50.894;6.888;2023-07-30T08:25:54;79.53;;;19.00;;
4049;SDS011;2039;50.894;6.888;2023-07-30T08:28:57;80.03;;;18.90;;
4049;SDS011;2039;50.894;6.888;2023-07-30T08:31:30;81.73;;;19.40;;
4049;SDS011;2039;50.894;6.888;2023-07-30T08:34:22;81.27;;;18.97;;
4049;SDS011;2039;50.894;6.888;2023-07-30T08:37:45;79.03;;;17.10;;
4049;SDS011;2039;50.894;6.888;2023-07-30T08:43:27;82.67;;;17.00;;
4049;SDS011;2039;50.894;6.888;2023-07-30T08:50:21;83.80;;;19.13;;
4049;SDS011;2039;50.894;6.888;2023-07-30T08:56:22;85.47;;;18.77;;
4049;SDS011;2039;50.894;6.888;2023-07-30T08:58:50;83.10;;;14.50;;
4049;SDS011;2039;50.894;6.888;2023-07-30T09:01:19;81.17;;;14.07;;
4049;SDS011;2039;50.894;6.888;2023-07-30T09:03:45;79.00;;;12.07;;
4049;SDS011;2039;50.894;6.888;2023-07-30T09:06:13;76.97;;;10.20;;
4049;SDS011;2039;50.894;6.888;2023-07-30T09:08:38;74.13;;;6.77;;
4049;SDS011;2039;50.894;6.888;2023-07-30T09:11:08;82.97;;;16.17;;
4049;SDS011;2039;50.894;6.888;2023-07-30T09:13:37;75.80;;;7.93;;
4049;SDS011;2039;50.894;6.888;2023-07-30T09:16:10;76.43;;;7.07;;
4049;SDS011;2039;50.894;6.888;2023-07-30T09:18:45;76.30;;;5.70;;
4049;SDS011;2039;50.894;6.888;2023-07-30T09:21:11;71.93;;;5.40;;
4049;SDS011;2039;50.894;6.888;2023-07-30T09:23:41;71.57;;;5.40;;
4049;SDS011;2039;50.894;6.888;2023-07-30T09:26:07;71.80;;;5.30;;
4049;SDS011;2039;50.894;6.888;2023-07-30T09:28:34;75.17;;;5.23;;
4049;SDS011;2039;50.894;6.888;2023-07-30T09:31:03;71.83;;;4.77;;
4049;SDS011;2039;50.894;6.888;2023-07-30T09:33:32;76.43;;;5.70;;
4049;SDS011;2039;50.894;6.888;2023-07-30T09:36:01;81.33;;;5.53;;
4049;SDS011;2039;50.894;6.888;2023-07-30T09:38:27;75.67;;;7.03;;
4049;SDS011;2039;50.894;6.888;2023-07-30T09:40:59;70.37;;;5.50;;
4049;SDS011;2039;50.894;6.888;2023-07-30T09:43:29;74.00;;;5.87;;
4049;SDS011;2039;50.894;6.888;2023-07-30T09:46:05;70.80;;;4.93;;
4049;SDS011;2039;50.894;6.888;2023-07-30T09:48:32;75.00;;;5.00;;
4049;SDS011;2039;50.894;6.888;2023-07-30T09:50:59;73.27;;;5.13;;
4049;SDS011;2039;50.894;6.888;2023-07-30T09:53:28;75.10;;;5.03;;
4049;SDS011;2039;50.894;6.888;2023-07-30T09:55:55;75.50;;;5.00;;
4049;SDS011;2039;50.894;6.888;2023-07-30T09:58:21;73.23;;;4.47;;
4049;SDS011;2039;50.894;6.888;2023-07-30T10:00:47;75.43;;;4.43;;
4049;SDS011;2039;50.894;6.888;2023-07-30T10:03:15;76.23;;;5.13;;
4049;SDS011;2039;50.894;6.888;2023-07-30T10:05:41;73.20;;;5.53;;
4049;SDS011;2039;50.894;6.888;2023-07-30T10:08:12;77.40;;;5.63;;
4049;SDS011;2039;50.894;6.888;2023-07-30T10:10:45;75.90;;;5.00;;
4049;SDS011;2039;50.894;6.888;2023-07-30T10:13:12;73.50;;;5.10;;
4049;SDS011;2039;50.894;6.888;2023-07-30T10:15:38;72.33;;;4.73;;
4049;SDS011;2039;50.894;6.888;2023-07-30T10:18:04;75.10;;;6.03;;
4049;SDS011;2039;50.894;6.888;2023-07-30T10:20:30;75.80;;;4.90;;
4049;SDS011;2039;50.894;6.888;2023-07-30T10:22:57;73.43;;;6.17;;
4049;SDS011;2039;50.894;6.888;2023-07-30T10:25:46;73.27;;;4.60;;
4049;SDS011;2039;50.894;6.888;2023-07-30T10:28:44;72.60;;;5.13;;
4049;SDS011;2039;50.894;6.888;2023-07-30T10:31:08;75.40;;;5.80;;
4049;SDS011;2039;50.894;6.888;2023-07-30T10:33:46;75.80;;;5.80;;
4049;SDS011;2039;50.894;6.888;2023-07-30T10:36:34;73.90;;;5.70;;
4049;SDS011;2039;50.894;6.888;2023-07-30T10:41:46;78.90;;;8.37;;
4049;SDS011;2039;50.894;6.888;2023-07-30T10:44:18;74.93;;;12.50;;
4049;SDS011;2039;50.894;6.888;2023-07-30T10:46:46;76.73;;;8.13;;
4049;SDS011;2039;50.894;6.888;2023-07-30T10:49:12;77.67;;;10.67;;
4049;SDS011;2039;50.894;6.888;2023-07-30T10:51:38;81.30;;;12.47;;
4049;SDS011;2039;50.894;6.888;2023-07-30T10:54:05;74.37;;;10.27;;
4049;SDS011;2039;50.894;6.888;2023-07-30T10:56:35;73.57;;;13.97;;
4049;SDS011;2039;50.894;6.888;2023-07-30T10:59:02;75.13;;;6.77;;
4049;SDS011;2039;50.894;6.888;2023-07-30T11:01:39;75.07;;;9.00;;
4049;SDS011;2039;50.894;6.888;2023-07-30T11:04:07;76.53;;;15.53;;
4049;SDS011;2039;50.894;6.888;2023-07-30T11:06:37;74.23;;;15.00;;
4049;SDS011;2039;50.894;6.888;2023-07-30T11:09:04;72.97;;;5.50;;
4049;SDS011;2039;50.894;6.888;2023-07-30T11:11:30;75.97;;;5.50;;
4049;SDS011;2039;50.894;6.888;2023-07-30T11:13:56;72.07;;;3.87;;
4049;SDS011;2039;50.894;6.888;2023-07-30T11:16:24;71.40;;;4.03;;
4049;SDS011;2039;50.894;6.888;2023-07-30T11:18:49;74.10;;;4.93;;
4049;SDS011;2039;50.894;6.888;2023-07-30T11:21:16;76.87;;;5.17;;
4049;SDS011;2039;50.894;6.888;2023-07-30T11:23:43;70.27;;;5.63;;
4049;SDS011;2039;50.894;6.888;2023-07-30T11:26:17;71.67;;;3.83;;
4049;SDS011;2039;50.894;6.888;2023-07-30T11:28:46;72.53;;;3.67;;
4049;SDS011;2039;50.894;6.888;2023-07-30T11:31:16;70.90;;;2.77;;
4049;SDS011;2039;50.894;6.888;2023-07-30T11:33:47;74.10;;;3.33;;
4049;SDS011;2039;50.894;6.888;2023-07-30T11:36:15;70.40;;;3.03;;
4049;SDS011;2039;50.894;6.888;2023-07-30T11:38:43;73.73;;;3.30;;
4049;SDS011;2039;50.894;6.888;2023-07-30T11:41:10;70.20;;;2.97;;
4049;SDS011;2039;50.894;6.888;2023-07-30T11:43:40;70.03;;;3.70;;
4049;SDS011;2039;50.894;6.888;2023-07-30T11:48:41;69.90;;;3.90;;
4049;SDS011;2039;50.894;6.888;2023-07-30T11:51:21;70.97;;;4.70;;
4049;SDS011;2039;50.894;6.888;2023-07-30T11:53:50;72.40;;;4.63;;
4049;SDS011;2039;50.894;6.888;2023-07-30T11:56:21;73.13;;;4.83;;
4049;SDS011;2039;50.894;6.888;2023-07-30T11:58:55;74.57;;;5.00;;
4049;SDS011;2039;50.894;6.888;2023-07-30T12:01:31;71.40;;;4.87;;
4049;SDS011;2039;50.894;6.888;2023-07-30T12:04:01;71.80;;;3.87;;
4049;SDS011;2039;50.894;6.888;2023-07-30T12:06:47;70.47;;;4.00;;
4049;SDS011;2039;50.894;6.888;2023-07-30T12:09:15;72.00;;;4.87;;
4049;SDS011;2039;50.894;6.888;2023-07-30T12:11:56;72.37;;;3.23;;
4049;SDS011;2039;50.894;6.888;2023-07-30T12:14:27;73.00;;;4.40;;
4049;SDS011;2039;50.894;6.888;2023-07-30T12:16:58;70.30;;;3.97;;
4049;SDS011;2039;50.894;6.888;2023-07-30T12:19:24;70.30;;;3.83;;
4049;SDS011;2039;50.894;6.888;2023-07-30T12:21:50;76.23;;;6.13;;
4049;SDS011;2039;50.894;6.888;2023-07-30T12:24:15;70.03;;;4.17;;
4049;SDS011;2039;50.894;6.888;2023-07-30T12:26:41;71.43;;;3.77;;
4049;SDS011;2039;50.894;6.888;2023-07-30T12:29:07;72.30;;;5.50;;
4049;SDS011;2039;50.894;6.888;2023-07-30T12:31:32;73.00;;;4.93;;
4049;SDS011;2039;50.894;6.888;2023-07-30T12:33:58;73.90;;;4.33;;
4049;SDS011;2039;50.894;6.888;2023-07-30T12:36:24;73.17;;;7.60;;
4049;SDS011;2039;50.894;6.888;2023-07-30T12:38:50;71.57;;;7.40;;
4049;SDS011;2039;50.894;6.888;2023-07-30T12:41:18;74.37;;;9.17;;
4049;SDS011;2039;50.894;6.888;2023-07-30T12:43:50;70.27;;;3.40;;
4049;SDS011;2039;50.894;6.888;2023-07-30T12:46:17;78.00;;;4.50;;
4049;SDS011;2039;50.894;6.888;2023-07-30T12:48:43;77.80;;;3.77;;
4049;SDS011;2039;50.894;6.888;2023-07-30T12:51:09;72.13;;;4.07;;
4049;SDS011;2039;50.894;6.888;2023-07-30T12:53:34;76.33;;;4.97;;
4049;SDS011;2039;50.894;6.888;2023-07-30T12:56:00;71.90;;;3.43;;
4049;SDS011;2039;50.894;6.888;2023-07-30T12:58:26;75.60;;;3.87;;
4049;SDS011;2039;50.894;6.888;2023-07-30T13:00:51;77.33;;;4.70;;
4049;SDS011;2039;50.894;6.888;2023-07-30T13:03:17;71.20;;;4.67;;
4049;SDS011;2039;50.894;6.888;2023-07-30T13:05:43;73.80;;;4.07;;
4049;SDS011;2039;50.894;6.888;2023-07-30T13:08:08;72.87;;;4.70;;
4049;SDS011;2039;50.894;6.888;2023-07-30T13:10:34;73.20;;;4.37;;
4049;SDS011;2039;50.894;6.888;2023-07-30T13:13:00;73.40;;;6.33;;
4049;SDS011;2039;50.894;6.888;2023-07-30T13:15:26;72.47;;;4.10;;
4049;SDS011;2039;50.894;6.888;2023-07-30T13:17:53;73.40;;;5.00;;
4049;SDS011;2039;50.894;6.888;2023-07-30T13:20:18;72.73;;;4.63;;
4049;SDS011;2039;50.894;6.888;2023-07-30T13:22:44;73.97;;;4.10;;
4049;SDS011;2039;50.894;6.888;2023-07-30T13:25:10;72.97;;;3.70;;
4049;SDS011;2039;50.894;6.888;2023-07-30T13:27:36;74.17;;;4.17;;
4049;SDS011;2039;50.894;6.888;2023-07-30T13:30:01;74.37;;;3.77;;
4049;SDS011;2039;50.894;6.888;2023-07-30T13:32:27;70.50;;;4.10;;
4049;SDS011;2039;50.894;6.888;2023-07-30T13:34:53;80.63;;;4.33;;
4049;SDS011;2039;50.894;6.888;2023-07-30T13:37:19;74.90;;;7.67;;
4049;SDS011;2039;50.894;6.888;2023-07-30T13:39:44;73.27;;;7.90;;
4049;SDS011;2039;50.894;6.888;2023-07-30T13:42:10;74.00;;;5.23;;
4049;SDS011;2039;50.894;6.888;2023-07-30T13:44:39;73.20;;;6.50;;
4049;SDS011;2039;50.894;6.888;2023-07-30T13:47:05;73.80;;;5.50;;
4049;SDS011;2039;50.894;6.888;2023-07-30T13:49:31;75.60;;;8.17;;
4049;SDS011;2039;50.894;6.888;2023-07-30T13:51:56;73.97;;;4.77;;
4049;SDS011;2039;50.894;6.888;2023-07-30T13:54:22;74.57;;;3.80;;
4049;SDS011;2039;50.894;6.888;2023-07-30T13:56:48;72.07;;;3.50;;
4049;SDS011;2039;50.894;6.888;2023-07-30T13:59:13;74.30;;;3.60;;
4049;SDS011;2039;50.894;6.888;2023-07-30T14:01:39;73.63;;;4.40;;
4049;SDS011;2039;50.894;6.888;2023-07-30T14:04:05;73.00;;;3.00;;
4049;SDS011;2039;50.894;6.888;2023-07-30T14:06:30;72.17;;;4.20;;
4049;SDS011;2039;50.894;6.888;2023-07-30T14:08:56;73.27;;;3.80;;
4049;SDS011;2039;50.894;6.888;2023-07-30T14:11:24;75.73;;;3.77;;
4049;SDS011;2039;50.894;6.888;2023-07-30T14:13:53;73.23;;;3.30;;
4049;SDS011;2039;50.894;6.888;2023-07-30T14:16:19;72.20;;;3.10;;
4049;SDS011;2039;50.894;6.888;2023-07-30T14:18:48;70.77;;;3.23;;
4049;SDS011;2039;50.894;6.888;2023-07-30T14:21:16;73.97;;;3.50;;
4049;SDS011;2039;50.894;6.888;2023-07-30T14:23:42;71.97;;;3.40;;
4049;SDS011;2039;50.894;6.888;2023-07-30T14:26:11;73.87;;;4.03;;
4049;SDS011;2039;50.894;6.888;2023-07-30T14:28:40;73.40;;;3.20;;
4049;SDS011;2039;50.894;6.888;2023-07-30T14:31:15;74.50;;;3.40;;
4049;SDS011;2039;50.894;6.888;2023-07-30T14:33:41;74.10;;;3.40;;
4049;SDS011;2039;50.894;6.888;2023-07-30T14:36:07;72.87;;;3.03;;
4049;SDS011;2039;50.894;6.888;2023-07-30T14:38:36;73.53;;;3.50;;
4049;SDS011;2039;50.894;6.888;2023-07-30T14:41:03;70.07;;;3.10;;
4049;SDS011;2039;50.894;6.888;2023-07-30T14:43:33;72.30;;;3.17;;
4049;SDS011;2039;50.894;6.888;2023-07-30T14:46:02;74.00;;;3.53;;
4049;SDS011;2039;50.894;6.888;2023-07-30T14:48:28;71.83;;;3.40;;
4049;SDS011;2039;50.894;6.888;2023-07-30T14:50:54;78.90;;;4.00;;
4049;SDS011;2039;50.894;6.888;2023-07-30T14:53:20;71.90;;;3.37;;
4049;SDS011;2039;50.894;6.888;2023-07-30T14:55:46;71.97;;;3.60;;
4049;SDS011;2039;50.894;6.888;2023-07-30T14:58:12;74.03;;;3.67;;
4049;SDS011;2039;50.894;6.888;2023-07-30T15:00:38;71.50;;;3.43;;
4049;SDS011;2039;50.894;6.888;2023-07-30T15:03:04;71.30;;;3.03;;
4049;SDS011;2039;50.894;6.888;2023-07-30T15:05:30;70.90;;;3.40;;
4049;SDS011;2039;50.894;6.888;2023-07-30T15:07:57;70.40;;;3.40;;
4049;SDS011;2039;50.894;6.888;2023-07-30T15:10:23;74.60;;;3.93;;
4049;SDS011;2039;50.894;6.888;2023-07-30T15:12:49;71.47;;;3.40;;
4049;SDS011;2039;50.894;6.888;2023-07-30T15:15:15;71.90;;;3.30;;
4049;SDS011;2039;50.894;6.888;2023-07-30T15:17:41;71.50;;;3.53;;
4049;SDS011;2039;50.894;6.888;2023-07-30T15:20:06;72.97;;;3.53;;